Time;durP1;ratioP1;P1;durP2;ratioP2;P2;SDS_P1;SDS_P2;PMS_P1;PMS_P2;Temp;Humidity;BMP_temperature;BMP_pressure;BME280_temperature;BME280_humidity;BME280_pressure;Samples;Min_cycle;Max_cycle;Signal;HPM_P1;HPM_P2
2022/07/16 00:01:23;;;;;;;6.00;2.60;;;;;;;17.96;45.66;99337.55;233376;1205;138858;-58
2022/07/16 00:06:28;;;;;;;6.60;2.80;;;;;;;17.93;45.60;99337.05;233500;1205;138620;-58
2022/07/16 00:11:31;;;;;;;4.40;2.50;;;;;;;17.91;45.76;99335.44;233536;1205;139210;-57
2022/07/16 00:16:34;;;;;;;6.20;2.30;;;;;;;17.86;45.77;99331.08;233403;1205;138476;-58
2022/07/16 00:21:37;;;;;;;8.00;2.30;;;;;;;17.80;45.83;99324.56;233381;1205;138971;-60
2022/07/16 00:26:40;;;;;;;7.70;2.70;;;;;;;17.77;45.81;99318.60;233528;1204;138691;-60
2022/07/16 00:31:43;;;;;;;5.40;2.10;;;;;;;17.71;46.28;99314.16;233499;1205;138882;-61
2022/07/16 00:36:47;;;;;;;8.00;3.10;;;;;;;17.61;46.51;99315.97;233405;1205;139377;-60
2022/07/16 00:41:50;;;;;;;4.40;2.50;;;;;;;17.50;46.58;99309.79;233360;1205;138137;-60
2022/07/16 00:46:53;;;;;;;7.00;2.50;;;;;;;17.38;46.89;99299.11;233390;1204;138659;-59
2022/07/16 00:51:56;;;;;;;6.00;2.60;;;;;;;17.27;47.33;99296.48;233479;1205;139110;-59
2022/07/16 00:56:59;;;;;;;6.20;3.00;;;;;;;17.19;47.59;99296.11;233500;1205;139277;-58
2022/07/16 01:02:02;;;;;;;6.80;2.70;;;;;;;17.10;47.75;99293.97;233372;1205;138632;-59
2022/07/16 01:07:07;;;;;;;4.90;2.50;;;;;;;17.03;47.99;99294.56;233743;1201;138923;-59
2022/07/16 01:12:10;;;;;;;11.80;2.70;;;;;;;16.99;48.22;99298.46;233966;1201;138382;-59
2022/07/16 01:17:13;;;;;;;7.70;2.80;;;;;;;16.94;48.51;99292.83;234109;1200;138825;-59
2022/07/16 01:22:22;;;;;;;6.00;2.70;;;;;;;16.88;48.47;99286.88;234279;1199;138005;-59
2022/07/16 01:27:25;;;;;;;6.80;2.70;;;;;;;16.81;48.76;99282.47;234067;1199;138524;-58
2022/07/16 01:32:28;;;;;;;9.00;3.10;;;;;;;16.74;49.01;99284.13;233988;1202;138719;-59
2022/07/16 01:37:31;;;;;;;5.80;2.90;;;;;;;16.71;49.22;99280.23;233989;1201;138805;-58
2022/07/16 01:42:34;;;;;;;8.10;2.70;;;;;;;16.69;49.20;99278.63;234032;1199;139060;-58
2022/07/16 01:47:37;;;;;;;7.20;2.70;;;;;;;16.64;49.69;99275.08;233888;1202;139138;-60
2022/07/16 01:52:40;;;;;;;4.90;2.60;;;;;;;16.60;49.72;99268.42;234196;1202;138948;-60
2022/07/16 01:57:43;;;;;;;9.80;3.30;;;;;;;16.54;49.56;99265.29;234012;1202;139614;-61
2022/07/16 02:02:45;;;;;;;6.30;2.80;;;;;;;16.53;49.52;99270.95;234087;1201;138776;-60
2022/07/16 02:07:48;;;;;;;7.80;3.20;;;;;;;16.55;49.62;99265.95;234018;1199;139818;-59
2022/07/16 02:12:51;;;;;;;7.70;3.20;;;;;;;16.55;49.51;99266.64;233920;1201;139176;-60
2022/07/16 02:17:55;;;;;;;8.70;3.50;;;;;;;16.56;49.76;99261.60;233927;1201;138563;-59
2022/07/16 02:22:58;;;;;;;9.80;3.50;;;;;;;16.54;49.72;99258.84;234032;1202;139012;-60
2022/07/16 02:28:06;;;;;;;6.60;3.30;;;;;;;16.50;49.81;99255.86;234040;1199;140221;-56
2022/07/16 02:33:11;;;;;;;10.20;3.50;;;;;;;16.44;49.91;99254.33;234059;1201;138687;-59
2022/07/16 02:38:15;;;;;;;9.30;3.20;;;;;;;16.42;49.63;99259.15;234001;1201;140774;-59
2022/07/16 02:43:18;;;;;;;7.40;3.10;;;;;;;16.40;49.84;99252.20;233893;1202;141232;-58
2022/07/16 02:48:21;;;;;;;9.30;3.10;;;;;;;16.36;49.76;99258.22;233915;1202;138423;-57
2022/07/16 02:53:25;;;;;;;8.40;3.40;;;;;;;16.32;49.86;99260.34;234031;1202;138687;-58
2022/07/16 02:58:28;;;;;;;9.30;3.00;;;;;;;16.28;49.94;99263.38;234073;1201;138703;-57
2022/07/16 03:03:31;;;;;;;12.50;3.40;;;;;;;16.25;49.99;99260.60;234130;1199;138957;-56
2022/07/16 03:08:33;;;;;;;143.00;118.20;;;;;;;16.21;50.11;99256.04;234055;1199;139046;-59
2022/07/16 03:13:36;;;;;;;28.00;18.30;;;;;;;16.22;50.25;99260.98;233980;1201;140221;-58
2022/07/16 03:18:39;;;;;;;11.10;4.50;;;;;;;16.20;50.35;99261.14;233916;1199;139074;-58
2022/07/16 03:23:43;;;;;;;34.60;18.70;;;;;;;16.17;50.41;99263.88;234086;1199;138786;-57
2022/07/16 03:28:46;;;;;;;13.10;4.30;;;;;;;16.13;50.39;99263.02;234154;1199;138760;-60
2022/07/16 03:33:49;;;;;;;8.70;3.50;;;;;;;16.13;50.55;99260.46;233927;1201;138763;-56
2022/07/16 03:44:07;;;;;;;55.80;40.00;;;;;;;16.07;50.67;99270.77;234106;1199;140178;-58
2022/07/16 03:49:10;;;;;;;10.80;5.20;;;;;;;16.10;50.90;99273.05;233968;1202;138560;-58
2022/07/16 03:54:13;;;;;;;10.00;3.90;;;;;;;16.14;50.71;99272.52;234057;1202;138917;-57
2022/07/16 03:59:16;;;;;;;11.30;3.80;;;;;;;16.16;50.78;99275.23;234046;1201;139124;-59
2022/07/16 04:04:19;;;;;;;8.30;3.80;;;;;;;16.17;50.50;99270.36;234241;1199;138671;-59
2022/07/16 04:09:22;;;;;;;13.40;4.20;;;;;;;16.17;50.75;99271.64;234181;1198;139503;-59
2022/07/16 04:14:25;;;;;;;65.10;49.00;;;;;;;16.21;50.92;99272.56;234169;1199;138696;-58
2022/07/16 04:19:28;;;;;;;10.00;4.90;;;;;;;16.30;51.02;99278.98;234139;1199;139646;-59
2022/07/16 04:24:31;;;;;;;11.10;4.60;;;;;;;16.38;50.96;99277.79;234193;1198;139036;-58
2022/07/16 04:29:34;;;;;;;10.70;4.70;;;;;;;16.46;50.86;99273.48;234217;1199;139086;-59
2022/07/16 04:34:37;;;;;;;7.80;4.20;;;;;;;16.44;50.64;99269.42;234262;1199;139604;-58
2022/07/16 04:39:40;;;;;;;11.20;3.90;;;;;;;16.47;50.88;99269.85;234233;1199;139062;-57
2022/07/16 04:44:42;;;;;;;11.10;3.80;;;;;;;16.52;50.75;99266.71;234181;1199;139539;-59
2022/07/16 04:49:46;;;;;;;10.50;3.80;;;;;;;16.58;50.83;99261.98;234146;1199;138979;-60
2022/07/16 04:54:49;;;;;;;8.30;3.60;;;;;;;16.61;50.60;99263.83;234107;1200;138730;-60
2022/07/16 04:59:52;;;;;;;8.00;3.70;;;;;;;16.71;50.76;99267.83;234182;1199;138927;-59
2022/07/16 05:04:55;;;;;;;8.40;3.80;;;;;;;16.83;50.73;99266.92;234144;1199;138618;-58
2022/07/16 05:09:58;;;;;;;10.90;3.80;;;;;;;16.92;50.70;99265.36;234317;1199;138635;-57
2022/07/16 05:15:01;;;;;;;12.40;3.80;;;;;;;17.09;50.78;99265.26;234239;1199;138772;-57
2022/07/16 05:20:05;;;;;;;11.40;4.30;;;;;;;17.21;50.45;99263.95;234122;1199;138726;-58
2022/07/16 05:25:09;;;;;;;11.80;3.80;;;;;;;17.30;50.75;99261.26;234237;1199;139504;-59
2022/07/16 05:30:12;;;;;;;10.10;3.60;;;;;;;17.35;50.40;99260.31;234224;1199;139054;-56
2022/07/16 05:35:16;;;;;;;8.40;3.60;;;;;;;17.40;50.45;99259.84;234185;1199;138783;-60
2022/07/16 05:40:19;;;;;;;8.60;4.00;;;;;;;17.49;50.58;99259.08;234223;1199;138424;-60
2022/07/16 05:45:22;;;;;;;10.30;4.10;;;;;;;17.62;50.49;99255.45;234122;1199;139786;-59
2022/07/16 05:50:25;;;;;;;9.90;3.70;;;;;;;17.78;50.42;99262.08;234151;1199;139056;-60
2022/07/16 05:55:28;;;;;;;9.10;3.30;;;;;;;17.90;50.22;99249.89;234213;1199;138466;-58
2022/07/16 06:00:31;;;;;;;9.90;3.80;;;;;;;18.02;49.85;99249.94;234192;1199;139630;-58
2022/07/16 06:05:35;;;;;;;7.30;3.20;;;;;;;18.08;49.65;99248.89;234278;1199;139759;-59
2022/07/16 06:10:38;;;;;;;10.70;3.30;;;;;;;18.17;49.46;99258.08;234344;1199;139063;-58
2022/07/16 06:15:41;;;;;;;9.20;3.80;;;;;;;18.27;49.21;99250.77;234285;1199;139884;-59
2022/07/16 06:20:44;;;;;;;6.40;3.10;;;;;;;18.39;49.17;99245.14;234248;1199;138503;-59
2022/07/16 06:25:47;;;;;;;7.90;3.20;;;;;;;18.50;48.93;99244.13;234245;1199;138870;-60
2022/07/16 06:30:50;;;;;;;7.90;3.20;;;;;;;18.64;48.81;99234.91;234288;1199;138721;-61
2022/07/16 06:35:53;;;;;;;9.90;3.40;;;;;;;18.78;48.58;99239.40;234205;1199;138349;-60
2022/07/16 06:40:56;;;;;;;6.10;2.70;;;;;;;18.91;48.32;99238.42;234223;1199;138626;-60
2022/07/16 06:45:59;;;;;;;6.40;2.50;;;;;;;19.03;48.05;99241.41;234318;1199;139120;-58
2022/07/16 06:51:02;;;;;;;6.70;3.00;;;;;;;19.15;47.92;99246.38;234163;1199;161062;-60
2022/07/16 06:56:06;;;;;;;7.20;3.10;;;;;;;19.24;47.47;99240.36;234245;1199;138677;-59
2022/07/16 07:01:09;;;;;;;9.50;3.30;;;;;;;19.37;47.35;99233.72;234221;1199;138697;-60
2022/07/16 07:06:12;;;;;;;8.80;2.50;;;;;;;19.50;46.89;99230.14;234112;1199;139047;-57
2022/07/16 07:11:16;;;;;;;9.10;3.10;;;;;;;19.55;46.50;99228.59;234122;1199;140902;-60
2022/07/16 07:16:19;;;;;;;7.20;2.80;;;;;;;19.63;46.67;99224.55;234244;1199;138883;-60
2022/07/16 07:21:21;;;;;;;6.60;2.60;;;;;;;19.77;46.58;99218.67;234074;1199;138659;-60
2022/07/16 07:26:24;;;;;;;13.70;3.00;;;;;;;19.93;46.35;99223.61;234067;1199;139656;-60
2022/07/16 07:31:28;;;;;;;7.80;2.90;;;;;;;20.06;46.03;99230.11;234144;1199;139533;-59
2022/07/16 07:36:31;;;;;;;7.80;2.30;;;;;;;20.15;45.56;99224.05;234076;1199;139058;-62
2022/07/16 07:41:34;;;;;;;4.30;2.00;;;;;;;20.21;45.26;99223.71;234170;1199;140970;-60
2022/07/16 07:46:37;;;;;;;10.10;5.80;;;;;;;20.26;44.95;99216.06;234148;1199;140156;-55
2022/07/16 07:51:40;;;;;;;8.50;2.60;;;;;;;20.32;44.91;99216.54;234017;1199;138932;-58
2022/07/16 07:56:43;;;;;;;5.90;2.90;;;;;;;20.40;44.42;99224.15;234176;1199;139292;-59
2022/07/16 08:01:46;;;;;;;4.90;1.80;;;;;;;20.44;44.37;99216.59;234170;1199;138624;-59
2022/07/16 08:06:49;;;;;;;6.00;2.00;;;;;;;20.49;43.98;99214.83;234170;1199;139164;-59
2022/07/16 08:11:53;;;;;;;5.30;2.20;;;;;;;20.57;43.59;99206.16;234208;1199;138688;-59
2022/07/16 08:16:56;;;;;;;6.90;2.10;;;;;;;20.68;43.56;99201.42;234121;1199;138917;-59
2022/07/16 08:22:00;;;;;;;7.60;2.60;;;;;;;20.82;43.60;99204.10;234253;1199;139092;-60
2022/07/16 08:27:04;;;;;;;8.20;2.60;;;;;;;20.96;43.31;99205.16;234108;1199;138777;-58
2022/07/16 08:32:07;;;;;;;6.30;2.30;;;;;;;21.09;43.12;99195.40;234175;1198;139325;-61
2022/07/16 08:37:11;;;;;;;4.70;2.40;;;;;;;21.23;42.94;99194.52;234183;1199;139840;-59
2022/07/16 08:42:15;;;;;;;5.00;1.90;;;;;;;21.25;42.47;99188.27;234155;1199;139068;-59
2022/07/16 08:47:18;;;;;;;5.80;2.20;;;;;;;21.30;42.19;99188.03;234185;1199;138706;-61
2022/07/16 08:52:25;;;;;;;4.00;1.80;;;;;;;21.25;41.58;99192.63;234267;1199;138575;-62
2022/07/16 08:57:29;;;;;;;4.80;1.50;;;;;;;21.23;41.47;99186.73;234127;1199;138973;-62
2022/07/16 09:02:33;;;;;;;7.80;1.90;;;;;;;21.28;41.35;99184.93;234094;1199;138702;-59
2022/07/16 09:07:36;;;;;;;3.80;1.80;;;;;;;21.40;41.31;99180.66;234031;1199;138636;-62
2022/07/16 09:12:41;;;;;;;3.60;1.80;;;;;;;21.43;40.85;99183.27;234288;1199;138840;-62
2022/07/16 09:17:44;;;;;;;7.60;1.80;;;;;;;21.51;40.57;99178.49;234025;1200;138483;-60
2022/07/16 09:22:47;;;;;;;7.80;2.10;;;;;;;21.55;40.40;99172.63;234315;1199;139027;-58
2022/07/16 09:27:57;;;;;;;4.60;1.90;;;;;;;21.67;40.25;99165.09;234325;1199;138776;-60
2022/07/16 09:33:12;;;;;;;4.80;1.80;;;;;;;21.76;40.01;99167.97;234260;1199;138921;-62
2022/07/16 09:38:15;;;;;;;5.80;1.30;;;;;;;21.87;39.92;99161.99;234141;1199;138678;-61
2022/07/16 09:43:22;;;;;;;4.20;1.70;;;;;;;21.93;39.57;99155.66;234206;1199;138415;-60
2022/07/16 09:48:27;;;;;;;6.90;1.70;;;;;;;22.07;39.39;99155.64;234219;1199;138932;-59
2022/07/16 09:53:36;;;;;;;6.90;1.70;;;;;;;22.17;39.08;99165.95;234141;1199;138919;-59
2022/07/16 09:58:43;;;;;;;4.60;1.70;;;;;;;22.13;38.98;99157.64;234334;1199;138676;-58
2022/07/16 10:03:48;;;;;;;5.90;2.10;;;;;;;22.27;38.82;99164.70;234140;1199;138856;-58
2022/07/16 10:08:51;;;;;;;6.30;1.80;;;;;;;22.42;38.76;99160.20;234115;1199;138787;-61
2022/07/16 10:13:55;;;;;;;7.20;1.80;;;;;;;22.54;38.23;99159.47;234211;1199;138531;-60
2022/07/16 10:18:58;;;;;;;5.30;1.50;;;;;;;22.72;38.28;99152.75;234242;1199;138715;-58
2022/07/16 10:24:07;;;;;;;6.30;1.80;;;;;;;22.74;37.85;99156.27;234155;1199;139053;-61
2022/07/16 10:29:11;;;;;;;2.80;1.50;;;;;;;22.60;37.67;99146.82;234094;1200;138834;-60
2022/07/16 10:34:16;;;;;;;6.90;2.00;;;;;;;22.67;37.87;99141.70;234193;1199;139010;-59
2022/07/16 10:39:26;;;;;;;4.50;1.70;;;;;;;22.81;37.82;99128.53;234161;1199;139207;-60
2022/07/16 10:44:45;;;;;;;5.60;1.50;;;;;;;22.98;37.67;99123.78;234173;1199;138787;-60
2022/07/16 10:50:12;;;;;;;5.80;1.70;;;;;;;23.15;37.55;99126.33;234136;1199;139441;-59
2022/07/16 10:55:35;;;;;;;5.20;1.80;;;;;;;23.46;37.62;99117.02;234168;1199;138890;-60
2022/07/16 11:00:38;;;;;;;4.10;1.80;;;;;;;23.85;37.31;99111.89;234203;1198;139325;-60
2022/07/16 11:05:41;;;;;;;2.70;1.50;;;;;;;24.10;36.93;99107.07;234146;1199;139029;-60
2022/07/16 11:10:48;;;;;;;3.50;1.50;;;;;;;24.17;36.16;99104.34;234252;1199;139521;-60
2022/07/16 11:15:52;;;;;;;7.60;1.70;;;;;;;24.29;36.03;99103.57;234194;1199;138787;-59
2022/07/16 11:20:54;;;;;;;4.30;1.60;;;;;;;24.45;35.81;99097.42;234046;1198;138606;-61
2022/07/16 11:26:00;;;;;;;4.20;1.20;;;;;;;24.34;35.32;99098.00;234178;1199;139629;-60
2022/07/16 11:31:06;;;;;;;7.40;1.50;;;;;;;24.24;35.20;99093.30;234208;1199;138559;-60
2022/07/16 11:36:27;;;;;;;3.50;1.10;;;;;;;24.18;34.99;99088.77;234147;1199;138552;-58
2022/07/16 11:41:31;;;;;;;5.80;1.30;;;;;;;24.23;34.90;99095.63;234085;1199;138726;-59
2022/07/16 11:46:42;;;;;;;2.30;1.20;;;;;;;24.21;34.64;99095.34;234109;1200;139250;-60
2022/07/16 11:51:45;;;;;;;3.20;1.30;;;;;;;24.08;34.54;99090.81;234162;1199;138545;-59
2022/07/16 11:56:50;;;;;;;2.20;1.20;;;;;;;24.07;34.60;99088.98;234153;1199;139313;-58
2022/07/16 12:02:13;;;;;;;2.30;1.20;;;;;;;23.98;34.58;99090.35;234232;1199;139404;-59
2022/07/16 12:07:30;;;;;;;3.10;1.40;;;;;;;23.82;34.42;99092.83;234140;1199;140184;-59
2022/07/16 12:12:36;;;;;;;2.40;1.30;;;;;;;23.64;34.69;99097.26;234119;1199;138674;-61
2022/07/16 12:17:42;;;;;;;2.30;1.30;;;;;;;23.57;34.84;99101.50;234238;1199;139108;-59
2022/07/16 12:22:48;;;;;;;5.10;1.20;;;;;;;23.54;34.76;99098.73;234284;1199;138746;-59
2022/07/16 12:27:54;;;;;;;15.20;12.80;;;;;;;23.68;35.06;99098.08;234229;1199;139179;-61
2022/07/16 12:32:58;;;;;;;4.00;2.00;;;;;;;23.81;34.99;99100.32;234054;1199;138829;-59
2022/07/16 12:38:03;;;;;;;3.90;1.50;;;;;;;23.75;34.71;99099.67;233953;1199;138950;-60
2022/07/16 12:43:06;;;;;;;;;;;;;;;23.59;34.59;99100.58;234118;1199;139895;-60
2022/07/16 12:48:09;;;;;;;3.50;1.40;;;;;;;23.42;34.76;99100.13;234214;1199;126481;-61
2022/07/16 12:53:12;;;;;;;4.00;1.80;;;;;;;23.29;34.90;99095.50;234092;1199;139010;-59
2022/07/16 13:03:37;;;;;;;9.10;1.70;;;;;;;23.29;35.56;99090.20;234119;1199;140583;-60
2022/07/16 13:08:41;;;;;;;14.70;8.90;;;;;;;23.76;35.77;99086.62;234073;1199;139182;-58
2022/07/16 13:13:45;;;;;;;6.70;2.00;;;;;;;24.18;35.54;99076.04;234075;1199;139044;-59
2022/07/16 13:18:50;;;;;;;6.20;1.70;;;;;;;24.21;35.14;99078.23;234100;1199;139476;-60
2022/07/16 13:23:55;;;;;;;5.10;1.80;;;;;;;24.07;35.21;99074.83;234152;1199;138965;-61
2022/07/16 13:28:59;;;;;;;4.60;1.40;;;;;;;23.98;35.21;99069.59;234148;1199;138963;-60
2022/07/16 13:34:02;;;;;;;4.80;1.90;;;;;;;23.95;35.40;99071.15;234152;1199;139751;-62
2022/07/16 13:39:05;;;;;;;7.00;1.70;;;;;;;23.90;35.25;99070.54;234160;1199;138884;-60
2022/07/16 13:44:08;;;;;;;6.70;1.80;;;;;;;23.81;35.39;99061.86;234106;1199;138902;-60
2022/07/16 13:49:11;;;;;;;4.60;1.70;;;;;;;23.71;35.57;99054.91;234087;1199;138697;-61
2022/07/16 13:54:14;;;;;;;128.40;94.00;;;;;;;23.69;35.78;99048.79;234152;1199;138816;-59
2022/07/16 13:59:17;;;;;;;5.90;3.70;;;;;;;24.22;36.32;99044.80;234148;1199;139743;-60
2022/07/16 14:04:20;;;;;;;6.40;1.90;;;;;;;24.45;35.84;99044.82;234187;1199;139626;-60
2022/07/16 14:09:25;;;;;;;4.40;1.60;;;;;;;24.42;35.59;99046.90;234053;1199;139583;-60
2022/07/16 14:14:28;;;;;;;4.60;1.80;;;;;;;24.46;35.71;99048.50;234099;1199;138708;-58
2022/07/16 14:19:32;;;;;;;6.80;1.70;;;;;;;24.66;35.79;99052.45;234123;1199;139261;-59
2022/07/16 14:24:36;;;;;;;4.80;1.80;;;;;;;24.98;35.72;99044.89;234126;1199;139329;-60
2022/07/16 14:29:39;;;;;;;4.10;1.80;;;;;;;25.31;35.51;99045.10;234139;1199;138827;-58
2022/07/16 14:34:42;;;;;;;3.20;1.40;;;;;;;25.25;35.14;99040.71;234236;1199;138549;-60
2022/07/16 14:39:53;;;;;;;4.80;1.70;;;;;;;24.99;34.70;99039.90;234210;1199;138755;-60
2022/07/16 14:44:56;;;;;;;3.90;1.60;;;;;;;24.66;34.73;99033.67;234129;1199;138930;-61
2022/07/16 14:49:59;;;;;;;4.80;1.70;;;;;;;24.45;34.89;99036.77;234035;1199;140571;-61
2022/07/16 14:55:04;;;;;;;3.60;1.40;;;;;;;24.27;35.02;99030.42;234110;1199;138760;-60
2022/07/16 15:00:15;;;;;;;2.60;1.70;;;;;;;24.11;35.13;99031.27;234044;1199;138686;-59
2022/07/16 15:05:18;;;;;;;5.50;1.70;;;;;;;24.00;35.23;99031.83;234018;1199;140396;-58
2022/07/16 15:10:21;;;;;;;6.40;3.40;;;;;;;23.92;35.32;99037.33;234243;1199;138808;-61
2022/07/16 15:15:24;;;;;;;2.90;1.70;;;;;;;23.84;35.29;99038.39;234143;1199;139157;-61
2022/07/16 15:20:27;;;;;;;92.30;71.90;;;;;;;23.76;35.46;99038.08;234122;1199;138283;-60
2022/07/16 15:25:30;;;;;;;4.90;2.50;;;;;;;23.76;35.36;99051.83;234130;1199;139381;-61
2022/07/16 15:30:33;;;;;;;4.60;1.70;;;;;;;23.73;35.14;99050.17;234173;1199;139134;-61
2022/07/16 15:35:37;;;;;;;4.20;1.40;;;;;;;23.69;34.95;99055.58;234113;1199;138849;-59
2022/07/16 15:40:40;;;;;;;5.50;1.40;;;;;;;23.63;34.87;99058.41;234152;1199;138628;-60
2022/07/16 15:46:04;;;;;;;3.40;1.40;;;;;;;23.58;35.02;99064.16;234230;1199;139001;-62
2022/07/16 15:51:07;;;;;;;274.40;210.30;;;;;;;23.53;35.05;99071.15;234132;1199;139124;-59
2022/07/16 15:56:10;;;;;;;7.00;4.80;;;;;;;23.48;35.11;99076.58;234142;1198;139645;-60
2022/07/16 16:01:19;;;;;;;7.00;1.60;;;;;;;23.46;35.25;99081.98;234156;1199;139194;-60
2022/07/16 16:06:28;;;;;;;7.40;2.20;;;;;;;23.40;35.24;99089.86;234088;1199;139021;-61
2022/07/16 16:11:31;;;;;;;8.60;2.90;;;;;;;23.33;35.64;99115.82;234198;1199;138854;-62
2022/07/16 16:16:34;;;;;;;14.00;2.00;;;;;;;23.21;36.19;99140.90;234214;1199;139215;-59
2022/07/16 16:21:37;;;;;;;7.60;1.40;;;;;;;23.01;36.69;99159.45;234237;1199;139109;-58
2022/07/16 16:26:40;;;;;;;11.10;1.60;;;;;;;22.72;37.35;99171.17;234188;1199;138505;-62
2022/07/16 16:31:44;;;;;;;4.20;1.30;;;;;;;22.44;37.99;99189.09;234130;1199;139437;-63
2022/07/16 16:36:48;;;;;;;121.30;102.00;;;;;;;22.20;38.47;99198.89;234037;1199;139019;-61
2022/07/16 16:41:51;;;;;;;9.00;4.40;;;;;;;21.99;39.15;99201.31;234132;1199;140770;-60
2022/07/16 16:46:53;;;;;;;2.90;1.10;;;;;;;21.74;39.52;99205.11;233903;1199;138522;-60
2022/07/16 16:51:56;;;;;;;1.60;1.10;;;;;;;21.49;39.94;99224.52;234108;1199;139489;-62
2022/07/16 16:57:00;;;;;;;0.80;0.60;;;;;;;21.25;40.10;99235.98;234107;1199;139003;-62
2022/07/16 17:02:04;;;;;;;1.90;0.80;;;;;;;21.02;40.51;99238.10;234079;1199;140197;-61
2022/07/16 17:07:07;;;;;;;0.80;0.70;;;;;;;20.81;40.79;99240.50;234099;1199;138933;-62
2022/07/16 17:12:10;;;;;;;84.60;59.20;;;;;;;20.60;41.11;99251.45;234162;1199;139326;-62
2022/07/16 17:17:13;;;;;;;5.60;4.10;;;;;;;20.42;41.60;99257.84;234094;1199;139987;-60
2022/07/16 17:22:16;;;;;;;1.60;1.00;;;;;;;20.25;42.18;99265.38;234223;1199;138706;-62
2022/07/16 17:27:20;;;;;;;1.20;0.70;;;;;;;20.09;42.62;99294.67;234104;1199;139580;-61
2022/07/16 17:32:24;;;;;;;1.40;1.00;;;;;;;19.87;43.33;99303.05;234020;1199;139405;-59
2022/07/16 17:37:27;;;;;;;2.70;1.00;;;;;;;19.60;44.19;99293.83;234070;1199;139628;-60
2022/07/16 17:42:30;;;;;;;5.30;1.40;;;;;;;19.34;45.01;99304.72;234078;1199;139764;-61
2022/07/16 17:47:33;;;;;;;2.20;0.90;;;;;;;19.10;45.65;99319.16;233964;1199;138749;-61
2022/07/16 17:52:37;;;;;;;2.20;1.10;;;;;;;18.93;46.51;99324.52;234273;1199;139097;-60
2022/07/16 17:57:40;;;;;;;2.50;0.90;;;;;;;18.83;47.07;99327.36;234030;1199;139004;-59
2022/07/16 18:02:44;;;;;;;1.50;1.00;;;;;;;18.74;47.52;99338.67;234041;1199;139170;-61
2022/07/16 18:07:47;;;;;;;0.90;0.90;;;;;;;18.67;48.13;99343.34;234024;1199;138676;-60
2022/07/16 18:12:50;;;;;;;2.60;1.00;;;;;;;18.65;48.67;99345.56;234109;1199;139349;-62
2022/07/16 18:17:53;;;;;;;19.80;14.70;;;;;;;18.66;48.85;99349.98;234082;1199;139030;-59
2022/07/16 18:22:56;;;;;;;2.80;1.90;;;;;;;18.76;49.19;99351.11;234264;1199;139415;-63
2022/07/16 18:27:59;;;;;;;1.70;1.10;;;;;;;18.73;49.32;99357.45;234297;1199;138554;-62
2022/07/16 18:33:02;;;;;;;2.80;1.30;;;;;;;18.66;49.44;99360.71;234170;1199;138521;-63
2022/07/16 18:38:05;;;;;;;2.20;1.20;;;;;;;18.56;49.95;99369.91;233035;1199;139659;-62
2022/07/16 18:43:10;;;;;;;4.80;1.60;;;;;;;18.44;50.21;99376.92;234207;1198;139693;-61
2022/07/16 18:48:13;;;;;;;2.90;1.50;;;;;;;18.36;50.65;99379.75;234156;1199;139100;-61
2022/07/16 18:53:16;;;;;;;4.00;1.50;;;;;;;18.29;51.00;99393.52;234159;1199;138680;-62
2022/07/16 18:58:21;;;;;;;;;;;;;;;18.23;51.28;99404.14;234323;1199;139272;-61
2022/07/16 19:03:24;;;;;;;2.50;1.30;;;;;;;18.15;51.51;99404.45;234197;1199;124990;-58
2022/07/16 19:08:27;;;;;;;4.30;1.30;;;;;;;18.11;51.78;99407.13;234111;1199;138833;-60
2022/07/16 19:13:30;;;;;;;5.00;1.50;;;;;;;18.12;52.03;99421.84;234086;1199;139525;-60
2022/07/16 19:18:34;;;;;;;2.80;1.40;;;;;;;18.10;52.21;99434.73;234042;1199;138487;-61
2022/07/16 19:23:37;;;;;;;4.70;1.60;;;;;;;18.09;52.40;99449.36;234245;1199;139042;-61
2022/07/16 19:28:40;;;;;;;4.70;1.90;;;;;;;18.06;52.49;99454.67;234325;1199;139198;-60
2022/07/16 19:33:45;;;;;;;3.10;2.00;;;;;;;18.01;52.73;99465.64;234236;1199;138945;-59
2022/07/16 19:38:49;;;;;;;3.40;1.90;;;;;;;18.00;52.95;99462.55;234215;1199;138939;-61
2022/07/16 19:43:52;;;;;;;2.20;1.50;;;;;;;18.00;53.14;99467.54;234189;1199;138694;-61
2022/07/16 19:48:56;;;;;;;5.70;1.80;;;;;;;17.99;53.10;99467.81;234011;1199;140924;-59
2022/07/16 19:53:59;;;;;;;10.10;6.70;;;;;;;17.99;53.54;99459.73;234220;1199;139271;-58
2022/07/16 19:59:02;;;;;;;4.00;2.40;;;;;;;17.99;53.44;99454.50;234198;1199;139905;-59
2022/07/16 20:04:05;;;;;;;5.20;2.40;;;;;;;17.96;53.53;99449.71;234216;1199;139491;-61
2022/07/16 20:09:08;;;;;;;4.10;1.90;;;;;;;17.95;53.77;99450.86;234190;1199;138740;-60
2022/07/16 20:14:11;;;;;;;2.90;1.90;;;;;;;17.87;53.69;99451.02;234190;1199;140557;-58
2022/07/16 20:19:14;;;;;;;3.40;1.80;;;;;;;17.83;53.90;99462.34;234132;1199;138668;-60
2022/07/16 20:24:37;;;;;;;2.30;1.70;;;;;;;17.86;53.89;99461.55;234212;1199;139273;-59
2022/07/16 20:29:40;;;;;;;5.40;1.60;;;;;;;17.81;53.89;99474.20;234175;1199;139732;-60
2022/07/16 20:34:43;;;;;;;3.20;2.10;;;;;;;17.72;53.88;99480.35;234244;1199;138884;-61
2022/07/16 20:39:46;;;;;;;2.50;1.60;;;;;;;17.67;54.33;99483.94;234123;1199;138765;-60
2022/07/16 20:44:51;;;;;;;3.00;1.70;;;;;;;17.62;54.21;99488.85;234083;1200;139134;-61
2022/07/16 20:49:54;;;;;;;2.50;1.60;;;;;;;17.57;54.29;99500.92;233988;1199;138684;-58
2022/07/16 20:54:58;;;;;;;1.90;1.40;;;;;;;17.54;54.33;99505.55;234235;1199;138831;-61
2022/07/16 21:00:03;;;;;;;2.10;1.40;;;;;;;17.51;54.49;99505.02;234252;1199;138993;-59
2022/07/16 21:05:09;;;;;;;3.70;1.60;;;;;;;17.51;54.43;99512.01;233760;1199;139110;-57
2022/07/16 21:10:12;;;;;;;5.00;1.80;;;;;;;17.52;54.75;99515.34;234194;1199;138798;-62
2022/07/16 21:15:15;;;;;;;3.20;1.70;;;;;;;17.55;54.74;99524.45;233262;1199;138726;-63
2022/07/16 21:20:18;;;;;;;3.10;1.70;;;;;;;17.56;54.79;99527.95;234130;1199;138463;-62
2022/07/16 21:25:21;;;;;;;6.30;3.50;;;;;;;17.57;54.92;99532.19;234045;1199;139197;-63
2022/07/16 21:30:24;;;;;;;4.10;2.30;;;;;;;17.53;54.62;99539.90;234085;1199;138677;-60
2022/07/16 21:35:27;;;;;;;3.00;2.10;;;;;;;17.48;54.79;99556.23;234178;1199;138931;-61
2022/07/16 21:40:31;;;;;;;4.80;2.10;;;;;;;17.46;55.08;99563.19;234318;1199;138919;-60
2022/07/16 21:45:34;;;;;;;3.10;2.20;;;;;;;17.43;54.89;99567.40;234258;1199;139621;-62
2022/07/16 21:50:37;;;;;;;5.50;2.50;;;;;;;17.39;55.06;99574.77;234148;1199;138444;-62
2022/07/16 21:55:40;;;;;;;4.10;2.20;;;;;;;17.32;55.01;99579.09;234077;1199;139039;-61
2022/07/16 22:00:43;;;;;;;4.30;2.40;;;;;;;17.20;55.27;99587.02;234184;1199;139382;-63
2022/07/16 22:05:46;;;;;;;3.00;1.90;;;;;;;17.14;55.39;99599.19;234179;1199;139605;-59
2022/07/16 22:10:49;;;;;;;3.10;2.20;;;;;;;17.00;55.48;99598.11;234299;1199;139120;-61
2022/07/16 22:15:52;;;;;;;4.30;2.30;;;;;;;16.95;55.53;99604.08;234109;1199;139383;-62
2022/07/16 22:20:55;;;;;;;3.00;2.00;;;;;;;16.95;55.67;99608.40;234106;1199;139149;-59
2022/07/16 22:26:04;;;;;;;3.40;1.90;;;;;;;16.91;55.77;99614.47;234245;1199;139974;-59
2022/07/16 22:31:07;;;;;;;3.30;2.10;;;;;;;16.89;55.77;99618.03;234103;1199;138691;-60
2022/07/16 22:36:15;;;;;;;5.90;2.60;;;;;;;16.89;55.82;99616.24;234228;1199;138819;-61
2022/07/16 22:41:18;;;;;;;4.60;2.40;;;;;;;16.85;55.67;99620.86;234194;1199;139095;-63
2022/07/16 22:46:22;;;;;;;4.90;2.40;;;;;;;16.79;55.84;99623.84;234326;1199;138443;-62
2022/07/16 22:51:25;;;;;;;5.00;2.00;;;;;;;16.73;55.90;99623.70;234143;1199;139207;-62
2022/07/16 22:56:30;;;;;;;3.90;2.00;;;;;;;16.67;56.03;99627.20;234279;1199;139125;-58
2022/07/16 23:01:33;;;;;;;5.90;2.40;;;;;;;16.64;56.10;99631.04;234234;1199;139293;-60
2022/07/16 23:06:36;;;;;;;6.50;2.20;;;;;;;16.59;56.21;99637.72;234235;1199;138424;-60
2022/07/16 23:11:39;;;;;;;3.90;2.10;;;;;;;16.50;56.34;99640.18;234199;1199;139178;-60
2022/07/16 23:16:42;;;;;;;4.20;2.60;;;;;;;16.49;56.39;99642.94;234350;1199;139744;-59
2022/07/16 23:21:45;;;;;;;3.40;2.30;;;;;;;16.48;56.56;99645.55;234252;1199;139282;-62
2022/07/16 23:26:48;;;;;;;3.80;2.60;;;;;;;16.47;56.81;99645.29;234308;1199;138874;-64